createdAt,value
2022-10-14T00:00:02.357Z,13.9
2022-10-14T00:05:02.465Z,13.9
2022-10-14T00:10:02.486Z,13.9
2022-10-14T00:15:01.697Z,13.9
2022-10-14T00:20:02.693Z,13.9
2022-10-14T00:25:01.951Z,14
2022-10-14T00:30:02.131Z,13.9
2022-10-14T00:35:02.279Z,13.9
2022-10-14T00:40:02.425Z,14
2022-10-14T00:45:02.618Z,13.9
2022-10-14T00:50:01.694Z,14
2022-10-14T00:55:01.865Z,14
2022-10-14T01:00:02.043Z,14
2022-10-14T01:05:02.990Z,14.1
2022-10-14T01:10:02.285Z,14.1
2022-10-14T01:15:02.502Z,14.1
2022-10-14T01:20:03.513Z,14.1
2022-10-14T01:25:01.736Z,14.1
2022-10-14T01:30:01.948Z,14.2
2022-10-14T01:35:02.921Z,14.2
2022-10-14T01:40:02.225Z,14.1
2022-10-14T01:45:02.369Z,14.1
2022-10-14T01:50:01.801Z,14.1
2022-10-14T01:55:01.920Z,14
2022-10-14T02:00:02.144Z,14
2022-10-14T02:05:02.211Z,13.9
2022-10-14T02:10:02.344Z,13.9
2022-10-14T02:15:02.571Z,13.9
2022-10-14T02:20:01.696Z,13.9
2022-10-14T02:25:01.756Z,13.8
2022-10-14T02:30:02.321Z,13.8
2022-10-14T02:35:02.076Z,13.7
2022-10-14T02:40:02.232Z,13.7
2022-10-14T02:45:02.394Z,13.7
2022-10-14T02:50:02.490Z,13.7
2022-10-14T02:55:02.685Z,13.7
2022-10-14T03:00:04.302Z,13.7
2022-10-14T03:05:04.316Z,13.7
2022-10-14T03:10:03.092Z,13.7
2022-10-14T03:15:04.431Z,13.7
2022-10-14T03:20:02.916Z,13.7
2022-10-14T03:25:10.696Z,13.7
2022-10-14T03:30:01.736Z,13.7
2022-10-14T03:35:04.552Z,13.7
2022-10-14T03:40:02.654Z,13.7
2022-10-14T03:45:02.980Z,13.7
2022-10-14T03:50:03.028Z,13.7
2022-10-14T03:55:02.498Z,13.8
2022-10-14T04:00:01.709Z,13.8
2022-10-14T04:05:02.737Z,13.8
2022-10-14T04:10:02.919Z,13.8
2022-10-14T04:15:02.280Z,13.8
2022-10-14T04:20:02.369Z,13.8
2022-10-14T04:25:04.273Z,13.8
2022-10-14T04:30:02.209Z,13.8
2022-10-14T04:35:03.270Z,13.8
2022-10-14T04:40:02.633Z,13.8
2022-10-14T04:45:02.109Z,13.8
2022-10-14T04:50:01.936Z,13.8
2022-10-14T04:55:02.030Z,13.8
2022-10-14T05:00:02.270Z,13.8
2022-10-14T05:05:03.244Z,13.8
2022-10-14T05:10:03.376Z,13.7
2022-10-14T05:15:02.681Z,13.8
2022-10-14T05:20:01.735Z,13.8
2022-10-14T05:25:01.961Z,13.7
2022-10-14T05:30:02.034Z,13.7
2022-10-14T05:35:03.111Z,13.8
2022-10-14T05:40:03.494Z,13.7
2022-10-14T05:45:02.591Z,13.7
2022-10-14T05:50:01.709Z,13.8
2022-10-14T05:55:02.100Z,13.8
2022-10-14T06:00:02.082Z,13.8
2022-10-14T06:05:02.945Z,13.7
2022-10-14T06:10:02.439Z,13.8
2022-10-14T06:15:02.460Z,13.7
2022-10-14T06:20:02.537Z,13.8
2022-10-14T06:25:04.377Z,13.7
2022-10-14T06:30:02.033Z,13.7
2022-10-14T06:35:03.125Z,13.6
2022-10-14T06:40:03.567Z,13.6
2022-10-14T06:45:03.995Z,13.6
2022-10-14T06:50:02.767Z,13.6
2022-10-14T06:55:01.893Z,13.6
2022-10-14T07:00:02.094Z,13.6
2022-10-14T07:05:03.344Z,13.6
2022-10-14T07:10:03.566Z,13.6
2022-10-14T07:15:02.990Z,13.6
2022-10-14T07:20:02.009Z,13.6
2022-10-14T07:25:02.138Z,13.6
2022-10-14T07:30:02.464Z,13.6
2022-10-14T07:35:03.414Z,13.7
2022-10-14T07:40:03.682Z,13.6
2022-10-14T07:45:02.884Z,13.6
2022-10-14T07:50:01.895Z,13.7
2022-10-14T07:55:02.020Z,13.7
2022-10-14T08:00:02.277Z,13.8
2022-10-14T08:05:19.315Z,13.9
2022-10-14T08:10:03.576Z,13.9
2022-10-14T08:15:03.787Z,13.9
2022-10-14T08:20:01.847Z,14
2022-10-14T08:25:01.994Z,14
2022-10-14T08:30:05.988Z,14
2022-10-14T08:35:03.308Z,14.3
2022-10-14T08:40:03.508Z,14.3
2022-10-14T08:45:02.876Z,14.3
2022-10-14T08:50:01.997Z,14.3
2022-10-14T08:55:02.090Z,14.3
2022-10-14T09:00:01.717Z,14.3
2022-10-14T09:05:02.815Z,14.3
2022-10-14T09:10:02.971Z,14.4
2022-10-14T09:15:03.761Z,14.4
2022-10-14T09:20:02.937Z,14.4
2022-10-14T09:25:02.564Z,14.5
2022-10-14T09:30:02.688Z,14.5
2022-10-14T09:35:02.990Z,14.6
2022-10-14T09:40:03.424Z,14.6
2022-10-14T09:45:03.535Z,14.6
2022-10-14T09:50:02.511Z,14.6
2022-10-14T09:55:02.586Z,14.7
2022-10-14T10:00:02.105Z,14.8
2022-10-14T10:05:03.158Z,15
2022-10-14T10:10:03.365Z,15.2
2022-10-14T10:15:03.714Z,15.4
2022-10-14T10:20:02.679Z,15.4
2022-10-14T10:25:02.038Z,15.5
2022-10-14T10:30:02.480Z,15.3
2022-10-14T10:35:03.026Z,15.2
2022-10-14T10:40:05.331Z,15.2
2022-10-14T10:45:03.582Z,15.2
2022-10-14T10:50:02.534Z,15.2
2022-10-14T10:55:02.186Z,15.3
2022-10-14T11:00:02.535Z,15.5
2022-10-14T11:05:04.284Z,16.2
2022-10-14T11:10:03.692Z,16.4
2022-10-14T11:15:04.788Z,16.6
2022-10-14T11:20:02.580Z,17
2022-10-14T11:25:02.689Z,17.3
2022-10-14T11:30:02.318Z,17.8
2022-10-14T11:35:02.959Z,17.9
2022-10-14T11:40:03.670Z,17.3
2022-10-14T11:45:03.470Z,17
2022-10-14T11:50:02.488Z,16.8
2022-10-14T11:55:02.642Z,16.7
2022-10-14T12:00:01.739Z,16.6
2022-10-14T12:05:03.000Z,16.5
2022-10-14T12:10:03.052Z,16.5
2022-10-14T12:15:03.471Z,16.6
2022-10-14T12:20:02.426Z,16.7
2022-10-14T12:25:02.510Z,17.1
2022-10-14T12:30:01.814Z,17.6
2022-10-14T12:35:02.847Z,18.1
2022-10-14T12:40:03.023Z,17.9
2022-10-14T12:45:03.339Z,17.9
2022-10-14T12:50:02.440Z,18.3
2022-10-14T12:55:02.530Z,18.6
2022-10-14T13:00:02.762Z,18.6
2022-10-14T13:05:04.376Z,18.6
2022-10-14T13:10:02.800Z,18.2
2022-10-14T13:15:03.264Z,17.9
2022-10-14T13:20:02.318Z,17.6
2022-10-14T13:25:02.655Z,17.4
2022-10-14T13:30:03.668Z,17.3
2022-10-14T13:35:02.800Z,17.1
2022-10-14T13:40:02.939Z,17
2022-10-14T13:45:03.174Z,17.4
2022-10-14T13:50:02.212Z,17.6
2022-10-14T13:55:02.349Z,17.4
2022-10-14T14:05:03.550Z,17.6
2022-10-14T14:10:02.760Z,17.4
2022-10-14T14:15:03.228Z,17.4
2022-10-14T14:20:02.104Z,17.5
2022-10-14T14:25:12.529Z,17.5
2022-10-14T14:30:02.189Z,17.8
2022-10-14T14:35:03.327Z,17.9
2022-10-14T14:40:03.480Z,17.9
2022-10-14T14:45:02.931Z,17.8
2022-10-14T14:50:25.242Z,17.8
2022-10-14T14:55:02.031Z,17.4
2022-10-14T15:00:02.300Z,17.2
2022-10-14T15:05:03.319Z,17
2022-10-14T15:10:03.447Z,16.8
2022-10-14T15:15:03.754Z,16.5
2022-10-14T15:20:01.863Z,16.4
2022-10-14T15:25:01.946Z,16.2
2022-10-14T15:30:03.212Z,16.1
2022-10-14T15:35:03.242Z,15.9
2022-10-14T15:40:03.502Z,15.8
2022-10-14T15:45:03.740Z,15.7
2022-10-14T15:50:01.800Z,15.5
2022-10-14T15:55:01.961Z,15.4
2022-10-14T16:00:02.395Z,15.3
2022-10-14T16:05:20.302Z,15.4
2022-10-14T16:10:03.406Z,15.2
2022-10-14T16:20:01.832Z,15.2
2022-10-14T16:25:01.909Z,15.1
2022-10-14T16:30:01.981Z,15
2022-10-14T16:35:03.266Z,15
2022-10-14T16:40:03.376Z,15
2022-10-14T16:45:03.655Z,15
2022-10-14T16:50:01.717Z,15
2022-10-14T16:55:01.887Z,14.9
2022-10-14T17:00:01.790Z,14.9
2022-10-14T17:05:03.264Z,14.8
2022-10-14T17:10:02.957Z,14.7
2022-10-14T17:15:03.348Z,14.7
2022-10-14T17:20:02.522Z,14.6
2022-10-14T17:25:02.504Z,14.6
2022-10-14T17:30:03.701Z,14.6
2022-10-14T17:35:03.110Z,14.7
2022-10-14T17:40:02.929Z,14.7
2022-10-14T17:45:03.352Z,14.7
2022-10-14T17:50:02.414Z,14.7
2022-10-14T17:55:02.553Z,14.7
2022-10-14T18:00:01.720Z,14.7
2022-10-14T18:05:03.078Z,14.7
2022-10-14T18:10:02.928Z,14.6
2022-10-14T18:15:03.699Z,14.6
2022-10-14T18:20:02.475Z,14.6
2022-10-14T18:25:02.727Z,14.6
2022-10-14T18:30:01.980Z,14.6
2022-10-14T18:35:02.963Z,14.6
2022-10-14T18:40:03.193Z,14.6
2022-10-14T18:45:05.172Z,14.5
2022-10-14T18:55:01.897Z,14.5
2022-10-14T19:00:02.678Z,14.4
2022-10-14T19:05:02.875Z,14.4
2022-10-14T19:10:03.202Z,14.5
2022-10-14T19:15:03.565Z,14.4
2022-10-14T19:20:02.545Z,14.4
2022-10-14T19:25:02.427Z,14.4
2022-10-14T19:30:02.412Z,14.4
2022-10-14T19:35:03.017Z,14.5
2022-10-14T19:40:03.701Z,14.4
2022-10-14T19:45:03.376Z,14.5
2022-10-14T19:50:02.327Z,14.5
2022-10-14T19:55:01.940Z,14.5
2022-10-14T20:00:01.864Z,14.5
2022-10-14T20:05:03.100Z,14.6
2022-10-14T20:10:03.285Z,14.5
2022-10-14T20:15:03.800Z,14.5
2022-10-14T20:20:02.604Z,14.6
2022-10-14T20:25:02.113Z,14.6
2022-10-14T20:30:02.049Z,14.7
2022-10-14T20:35:03.058Z,14.6
2022-10-14T20:40:03.251Z,14.6
2022-10-14T20:45:03.169Z,14.6
2022-10-14T20:50:02.474Z,14.6
2022-10-14T20:55:02.315Z,14.6
2022-10-14T21:00:03.279Z,14.7
2022-10-14T21:05:02.652Z,14.6
2022-10-14T21:10:02.947Z,14.6
2022-10-14T21:15:03.317Z,14.6
2022-10-14T21:20:02.317Z,14.6
2022-10-14T21:25:02.485Z,14.6
2022-10-14T21:30:02.802Z,14.6
2022-10-14T21:35:02.670Z,14.5
2022-10-14T21:40:02.869Z,14.5
2022-10-14T21:45:03.171Z,14.5
2022-10-14T21:50:02.193Z,14.5
2022-10-14T21:55:02.627Z,14.5
2022-10-14T22:00:01.971Z,14.5
2022-10-14T22:05:01.888Z,14.4
2022-10-14T22:10:04.487Z,14.4
2022-10-14T22:20:02.738Z,14.3
2022-10-14T22:25:02.502Z,14.3
2022-10-14T22:30:02.712Z,14.4
2022-10-14T22:35:01.793Z,14.5
2022-10-14T22:40:01.993Z,14.3
2022-10-14T22:45:02.054Z,14.3
2022-10-14T22:50:02.212Z,14.3
2022-10-14T22:55:03.061Z,14.4
2022-10-14T23:00:02.990Z,14.3
2022-10-14T23:05:03.269Z,14.3
2022-10-14T23:10:02.142Z,14.3
2022-10-14T23:15:02.347Z,14.3
2022-10-14T23:20:02.018Z,14.3
2022-10-14T23:25:02.226Z,14.3
2022-10-14T23:30:02.474Z,14.3
2022-10-14T23:35:02.462Z,14.3
2022-10-14T23:40:02.617Z,14.3
2022-10-14T23:45:01.753Z,14.3
2022-10-14T23:50:02.786Z,14.3
2022-10-14T23:55:02.075Z,14.3
